createdAt,value
2022-09-02T00:01:33.298Z,23.06
2022-09-02T00:04:01.577Z,23.05
2022-09-02T00:06:29.394Z,23.05
2022-09-02T00:08:56.111Z,23.07
2022-09-02T00:11:25.689Z,23.03
2022-09-02T00:13:52.451Z,23.04
2022-09-02T00:16:19.584Z,23.04
2022-09-02T00:18:46.494Z,23.05
2022-09-02T00:21:14.461Z,23.05
2022-09-02T00:23:42.551Z,23.08
2022-09-02T00:26:14.146Z,23.04
2022-09-02T00:28:48.875Z,23.04
2022-09-02T00:31:22.333Z,23.04
2022-09-02T00:33:52.979Z,23.07
2022-09-02T00:36:20.560Z,23.07
2022-09-02T00:38:47.608Z,23.05
2022-09-02T00:41:14.812Z,23.08
2022-09-02T00:43:44.423Z,23.08
2022-09-02T00:46:11.848Z,23.09
2022-09-02T00:48:40.824Z,23.06
2022-09-02T00:51:08.411Z,23.03
2022-09-02T00:53:35.534Z,23.06
2022-09-02T00:56:09.728Z,23.04
2022-09-02T00:58:37.559Z,23.05
2022-09-02T01:01:09.547Z,23.04
2022-09-02T01:03:36.266Z,23.03
2022-09-02T01:06:02.984Z,23.01
2022-09-02T01:08:34.781Z,23.02
2022-09-02T01:11:10.613Z,23.01
2022-09-02T01:13:39.151Z,23.01
2022-09-02T01:16:15.721Z,23.00
2022-09-02T01:18:45.625Z,23.00
2022-09-02T01:21:12.404Z,23.01
2022-09-02T01:23:39.587Z,23.02
2022-09-02T01:26:08.058Z,23.03
2022-09-02T01:28:35.378Z,23.03
2022-09-02T01:31:02.111Z,23.01
2022-09-02T01:33:29.095Z,23.02
2022-09-02T01:35:58.645Z,23.01
2022-09-02T01:38:25.387Z,23.00
2022-09-02T01:40:52.842Z,22.99
2022-09-02T01:43:24.122Z,23.00
2022-09-02T01:45:52.444Z,23.01
2022-09-02T01:48:28.192Z,23.00
2022-09-02T01:51:10.887Z,23.04
2022-09-02T01:53:37.849Z,23.02
2022-09-02T01:56:04.803Z,23.02
2022-09-02T01:58:31.837Z,23.04
2022-09-02T02:01:08.867Z,23.03
2022-09-02T02:03:36.965Z,23.03
2022-09-02T02:06:28.933Z,23.02
2022-09-02T02:08:56.055Z,23.02
2022-09-02T02:11:24.128Z,23.02
2022-09-02T02:13:50.831Z,23.02
2022-09-02T02:16:17.591Z,23.00
2022-09-02T02:18:47.560Z,22.99
2022-09-02T02:21:14.231Z,22.98
2022-09-02T02:23:40.875Z,23.02
2022-09-02T02:26:08.738Z,23.03
2022-09-02T02:28:35.663Z,23.02
2022-09-02T02:31:12.841Z,23.00
2022-09-02T02:33:39.853Z,22.99
2022-09-02T02:36:07.624Z,23.02
2022-09-02T02:38:35.827Z,23.00
2022-09-02T02:41:06.620Z,22.99
2022-09-02T02:43:44.625Z,23.02
2022-09-02T02:46:12.273Z,23.00
2022-09-02T02:48:39.484Z,23.03
2022-09-02T02:51:06.417Z,23.02
2022-09-02T02:53:33.602Z,23.02
2022-09-02T02:56:00.686Z,23.00
2022-09-02T02:58:28.328Z,22.99
2022-09-02T03:00:58.996Z,23.01
2022-09-02T03:03:25.666Z,22.96
2022-09-02T03:05:52.423Z,23.04
2022-09-02T03:08:33.817Z,22.98
2022-09-02T03:11:01.432Z,22.98
2022-09-02T03:13:29.437Z,23.01
2022-09-02T03:15:56.503Z,23.00
2022-09-02T03:18:23.327Z,23.00
2022-09-02T03:20:50.054Z,23.01
2022-09-02T03:23:17.827Z,23.01
2022-09-02T03:25:48.085Z,22.97
2022-09-02T03:28:14.830Z,22.96
2022-09-02T03:30:42.154Z,22.99
2022-09-02T03:33:08.811Z,22.96
2022-09-02T03:35:39.447Z,23.01
2022-09-02T03:38:06.152Z,22.98
2022-09-02T03:40:32.990Z,23.01
2022-09-02T03:43:00.560Z,22.96
2022-09-02T03:45:27.874Z,22.96
2022-09-02T03:47:54.718Z,22.95
2022-09-02T03:50:22.798Z,22.96
2022-09-02T03:52:56.167Z,22.95
2022-09-02T03:55:25.293Z,22.95
2022-09-02T03:57:52.002Z,22.96
2022-09-02T04:00:19.877Z,22.93
2022-09-02T04:02:51.240Z,22.93
2022-09-02T04:05:32.911Z,22.94
2022-09-02T04:07:59.648Z,22.93
2022-09-02T04:10:26.790Z,22.93
2022-09-02T04:13:11.605Z,22.93
2022-09-02T04:15:44.525Z,22.92
2022-09-02T04:18:12.000Z,22.93
2022-09-02T04:20:39.852Z,22.93
2022-09-02T04:23:07.840Z,22.94
2022-09-02T04:25:34.576Z,22.92
2022-09-02T04:28:01.254Z,22.94
2022-09-02T04:30:34.611Z,22.95
2022-09-02T04:33:01.272Z,22.97
2022-09-02T04:35:27.919Z,22.94
2022-09-02T04:37:54.541Z,22.98
2022-09-02T04:40:21.288Z,22.94
2022-09-02T04:42:47.997Z,22.96
2022-09-02T04:45:14.777Z,22.94
2022-09-02T04:47:41.400Z,22.94
2022-09-02T04:50:08.312Z,22.96
2022-09-02T04:52:39.794Z,22.96
2022-09-02T04:55:07.366Z,22.96
2022-09-02T04:57:34.119Z,23.00
2022-09-02T05:00:02.291Z,22.99
2022-09-02T05:02:34.480Z,22.99
2022-09-02T05:05:15.716Z,23.00
2022-09-02T05:07:42.350Z,23.00
2022-09-02T05:10:09.385Z,23.00
2022-09-02T05:12:36.703Z,22.92
2022-09-02T05:15:03.943Z,22.91
2022-09-02T05:17:33.179Z,22.94
2022-09-02T05:19:59.884Z,22.95
2022-09-02T05:22:29.490Z,22.95
2022-09-02T05:24:57.007Z,22.96
2022-09-02T05:27:23.873Z,22.93
2022-09-02T05:29:56.554Z,22.95
2022-09-02T05:32:23.574Z,22.94
2022-09-02T05:34:50.293Z,22.97
2022-09-02T05:37:17.085Z,22.95
2022-09-02T05:39:43.702Z,22.96
2022-09-02T05:42:10.295Z,22.94
2022-09-02T05:44:37.369Z,22.94
2022-09-02T05:47:04.132Z,22.95
2022-09-02T05:49:31.880Z,22.92
2022-09-02T05:51:59.930Z,22.91
2022-09-02T05:54:30.563Z,22.92
2022-09-02T05:56:58.874Z,22.92
2022-09-02T05:59:27.139Z,22.93
2022-09-02T06:01:54.065Z,22.94
2022-09-02T06:04:22.389Z,22.89
2022-09-02T06:06:49.755Z,22.89
2022-09-02T06:09:17.558Z,22.88
2022-09-02T06:11:46.210Z,22.86
2022-09-02T06:14:14.320Z,22.89
2022-09-02T06:16:42.164Z,22.87
2022-09-02T06:19:08.769Z,22.88
2022-09-02T06:21:35.969Z,22.89
2022-09-02T06:24:05.119Z,22.87
2022-09-02T06:26:31.774Z,22.85
2022-09-02T06:28:58.612Z,22.86
2022-09-02T06:33:53.233Z,22.86
2022-09-02T06:36:20.485Z,22.87
2022-09-02T06:41:14.803Z,22.84
2022-09-02T06:43:42.773Z,22.87
2022-09-02T06:46:15.163Z,22.85
2022-09-02T06:48:41.962Z,22.83
2022-09-02T06:51:08.802Z,22.82
2022-09-02T06:53:35.431Z,22.83
2022-09-02T06:56:03.405Z,22.82
2022-09-02T06:58:43.810Z,22.84
2022-09-02T07:01:14.257Z,22.83
2022-09-02T07:03:59.592Z,22.83
2022-09-02T07:06:26.903Z,22.80
2022-09-02T07:08:53.533Z,22.79
2022-09-02T07:11:24.251Z,22.78
2022-09-02T07:13:51.037Z,22.78
2022-09-02T07:16:26.829Z,22.78
2022-09-02T07:18:53.947Z,22.79
2022-09-02T07:21:20.774Z,22.82
2022-09-02T07:23:47.452Z,22.82
2022-09-02T07:26:15.595Z,22.79
2022-09-02T07:28:43.356Z,22.80
2022-09-02T07:31:11.269Z,22.80
2022-09-02T07:33:38.260Z,22.82
2022-09-02T07:36:05.446Z,22.83
2022-09-02T07:38:38.242Z,22.86
2022-09-02T07:41:05.449Z,22.86
2022-09-02T07:43:33.366Z,22.83
2022-09-02T07:46:01.027Z,22.85
2022-09-02T07:48:28.516Z,22.88
2022-09-02T07:50:55.847Z,22.86
2022-09-02T07:53:23.168Z,22.87
2022-09-02T07:55:50.146Z,22.89
2022-09-02T07:58:17.777Z,22.89
2022-09-02T08:00:45.183Z,22.90
2022-09-02T08:03:12.702Z,22.92
2022-09-02T08:05:40.500Z,22.92
2022-09-02T08:08:08.151Z,22.93
2022-09-02T08:10:35.817Z,22.94
2022-09-02T08:13:03.450Z,22.93
2022-09-02T08:15:30.789Z,22.94
2022-09-02T08:17:58.544Z,22.95
2022-09-02T08:20:25.334Z,22.95
2022-09-02T08:23:00.997Z,22.94
2022-09-02T08:25:38.851Z,22.96
2022-09-02T08:28:05.727Z,22.95
2022-09-02T08:30:32.513Z,22.94
2022-09-02T08:32:59.169Z,22.99
2022-09-02T08:35:25.932Z,22.99
2022-09-02T08:37:52.680Z,22.98
2022-09-02T08:40:21.496Z,22.98
2022-09-02T08:42:55.143Z,22.97
2022-09-02T08:45:28.499Z,22.98
2022-09-02T08:48:15.887Z,22.96
2022-09-02T08:50:45.090Z,22.96
2022-09-02T08:53:21.223Z,22.97
2022-09-02T08:55:58.454Z,22.97
2022-09-02T08:58:28.504Z,22.98
2022-09-02T09:01:04.764Z,23.02
2022-09-02T09:03:37.635Z,22.99
2022-09-02T09:06:13.911Z,22.98
2022-09-02T09:08:52.510Z,23.04
2022-09-02T09:11:38.841Z,23.01
2022-09-02T09:14:24.393Z,23.02
2022-09-02T09:16:51.100Z,23.01
2022-09-02T09:19:32.918Z,22.98
2022-09-02T09:22:03.916Z,23.00
2022-09-02T09:24:37.456Z,22.96
2022-09-02T09:27:07.715Z,23.00
2022-09-02T09:29:36.475Z,22.98
2022-09-02T09:32:03.918Z,23.02
2022-09-02T09:34:40.905Z,22.98
2022-09-02T09:37:10.857Z,23.03
2022-09-02T09:39:41.779Z,22.99
2022-09-02T09:42:15.070Z,22.96
2022-09-02T09:44:49.568Z,22.99
2022-09-02T09:47:20.279Z,23.06
2022-09-02T09:49:48.069Z,23.02
2022-09-02T09:52:26.473Z,23.00
2022-09-02T09:55:03.395Z,23.03
2022-09-02T09:57:35.517Z,23.02
2022-09-02T10:00:11.486Z,23.02
2022-09-02T10:02:46.558Z,23.14
2022-09-02T10:05:23.458Z,23.07
2022-09-02T10:08:04.335Z,23.03
2022-09-02T10:10:40.374Z,23.03
2022-09-02T10:13:23.240Z,23.00
2022-09-02T10:16:10.562Z,23.03
2022-09-02T10:18:49.626Z,23.08
2022-09-02T10:21:28.066Z,23.10
2022-09-02T10:24:07.575Z,23.04
2022-09-02T10:26:43.866Z,23.08
2022-09-02T10:29:39.690Z,23.02
2022-09-02T10:32:18.494Z,23.00
2022-09-02T10:34:54.931Z,23.00
2022-09-02T10:37:24.079Z,23.01
2022-09-02T10:40:00.872Z,23.05
2022-09-02T10:42:38.181Z,23.14
2022-09-02T10:45:08.017Z,23.15
2022-09-02T10:47:38.863Z,23.11
2022-09-02T10:50:15.288Z,23.07
2022-09-02T10:52:46.727Z,23.03
2022-09-02T10:55:25.187Z,23.04
2022-09-02T10:57:56.994Z,23.03
2022-09-02T11:00:28.241Z,23.07
2022-09-02T11:03:09.473Z,23.07
2022-09-02T11:05:47.548Z,23.05
2022-09-02T11:08:33.449Z,23.07
2022-09-02T11:11:05.897Z,23.06
2022-09-02T11:13:38.420Z,23.07
2022-09-02T11:16:17.550Z,23.09
2022-09-02T11:18:52.798Z,23.09
2022-09-02T11:21:32.012Z,23.08
2022-09-02T11:24:05.539Z,23.09
2022-09-02T11:26:42.207Z,23.11
2022-09-02T11:29:14.514Z,23.16
2022-09-02T11:31:50.600Z,23.14
2022-09-02T11:34:17.884Z,23.14
2022-09-02T11:36:45.028Z,23.16
2022-09-02T11:39:25.769Z,23.18
2022-09-02T11:42:06.355Z,23.17
2022-09-02T11:44:52.307Z,23.18
2022-09-02T11:47:41.903Z,23.18
2022-09-02T11:50:23.010Z,23.16
2022-09-02T11:52:59.766Z,23.16
2022-09-02T11:55:31.415Z,23.16
2022-09-02T11:57:59.422Z,23.17
2022-09-02T12:00:46.696Z,23.17
2022-09-02T12:03:40.289Z,23.21
2022-09-02T12:06:19.497Z,23.21
2022-09-02T12:08:47.512Z,23.23
2022-09-02T12:11:40.219Z,23.23
2022-09-02T12:14:16.655Z,23.25
2022-09-02T12:16:45.215Z,23.24
2022-09-02T12:19:13.560Z,23.24
2022-09-02T12:21:49.699Z,23.25
2022-09-02T12:24:20.647Z,23.26
2022-09-02T12:26:48.519Z,23.25
2022-09-02T12:29:19.435Z,23.25
2022-09-02T12:31:48.955Z,23.27
2022-09-02T12:34:19.099Z,23.25
2022-09-02T12:36:47.441Z,23.25
2022-09-02T12:39:23.890Z,23.26
2022-09-02T12:41:56.160Z,23.26
2022-09-02T12:44:23.342Z,23.27
2022-09-02T12:46:55.824Z,23.30
2022-09-02T12:49:23.814Z,23.32
2022-09-02T12:51:56.759Z,23.31
2022-09-02T12:54:26.724Z,23.32
2022-09-02T12:56:53.748Z,23.34
2022-09-02T12:59:30.144Z,23.41
2022-09-02T13:02:03.413Z,23.51
2022-09-02T13:04:40.443Z,23.51
2022-09-02T13:07:19.957Z,23.55
2022-09-02T13:10:05.575Z,23.56
2022-09-02T13:12:32.679Z,23.58
2022-09-02T13:15:09.916Z,23.62
2022-09-02T13:17:37.334Z,23.66
2022-09-02T13:20:14.837Z,23.78
2022-09-02T13:22:42.960Z,23.79
2022-09-02T13:25:19.790Z,23.79
2022-09-02T13:27:56.712Z,23.83
2022-09-02T13:30:38.188Z,23.84
2022-09-02T13:33:07.429Z,23.80
2022-09-02T13:35:37.707Z,23.76
2022-09-02T13:38:05.207Z,23.71
2022-09-02T13:40:34.466Z,23.78
2022-09-02T13:43:02.706Z,23.86
2022-09-02T13:45:32.516Z,23.81
2022-09-02T13:48:04.525Z,23.88
2022-09-02T13:50:32.238Z,23.85
2022-09-02T13:55:50.275Z,23.80
2022-09-02T13:58:33.320Z,23.80
2022-09-02T14:01:10.398Z,23.88
2022-09-02T14:03:38.982Z,23.88
2022-09-02T14:06:08.542Z,23.90
2022-09-02T14:08:35.890Z,23.85
2022-09-02T14:11:07.777Z,23.83
2022-09-02T14:13:34.975Z,23.83
2022-09-02T14:16:12.814Z,23.77
2022-09-02T14:18:39.853Z,23.75
2022-09-02T14:21:10.012Z,23.72
2022-09-02T14:23:39.965Z,23.70
2022-09-02T14:26:07.496Z,23.67
2022-09-02T14:28:35.262Z,23.69
2022-09-02T14:31:04.091Z,23.69
2022-09-02T14:36:12.341Z,23.66
2022-09-02T14:38:47.866Z,23.68
2022-09-02T14:41:17.374Z,23.66
2022-09-02T14:44:04.374Z,23.64
2022-09-02T14:46:51.298Z,23.62
2022-09-02T14:49:37.340Z,23.59
2022-09-02T14:52:06.010Z,23.59
2022-09-02T14:54:37.571Z,23.56
2022-09-02T14:57:04.745Z,23.56
2022-09-02T14:59:31.393Z,23.53
2022-09-02T15:01:59.203Z,23.54
2022-09-02T15:04:25.850Z,23.53
2022-09-02T15:06:52.681Z,23.50
2022-09-02T15:09:19.911Z,23.50
2022-09-02T15:11:51.729Z,23.51
2022-09-02T15:14:18.398Z,23.49
2022-09-02T15:16:45.181Z,23.50
2022-09-02T15:19:11.830Z,23.49
2022-09-02T15:21:38.760Z,23.49
2022-09-02T15:24:05.682Z,23.48
2022-09-02T15:26:32.444Z,23.47
2022-09-02T15:28:59.178Z,23.46
2022-09-02T15:31:26.685Z,23.47
2022-09-02T15:33:53.429Z,23.47
2022-09-02T15:36:21.458Z,23.47
2022-09-02T15:38:48.252Z,23.46
2022-09-02T15:41:19.078Z,23.45
2022-09-02T15:43:47.760Z,23.45
2022-09-02T15:46:18.656Z,23.44
2022-09-02T15:48:45.384Z,23.43
2022-09-02T15:51:12.832Z,23.44
2022-09-02T15:53:39.796Z,23.43
2022-09-02T15:56:15.237Z,23.44
2022-09-02T15:58:41.876Z,23.44
2022-09-02T16:01:09.412Z,23.43
2022-09-02T16:03:36.905Z,23.43
2022-09-02T16:06:04.708Z,23.43
2022-09-02T16:08:31.426Z,23.43
2022-09-02T16:11:02.804Z,23.43
2022-09-02T16:13:30.122Z,23.43
2022-09-02T16:16:00.430Z,23.42
2022-09-02T16:18:27.037Z,23.41
2022-09-02T16:20:53.766Z,23.42
2022-09-02T16:23:20.405Z,23.40
2022-09-02T16:25:47.023Z,23.42
2022-09-02T16:28:15.505Z,23.42
2022-09-02T16:30:45.898Z,23.40
2022-09-02T16:33:13.364Z,23.40
2022-09-02T16:35:40.354Z,23.40
2022-09-02T16:38:07.015Z,23.39
2022-09-02T16:40:33.782Z,23.39
2022-09-02T16:43:00.480Z,23.39
2022-09-02T16:45:27.272Z,23.39
2022-09-02T16:47:54.235Z,23.40
2022-09-02T16:50:20.927Z,23.38
2022-09-02T16:52:47.553Z,23.39
2022-09-02T16:55:18.828Z,23.38
2022-09-02T16:57:45.807Z,23.37
2022-09-02T17:00:13.074Z,23.38
2022-09-02T17:02:39.796Z,23.38
2022-09-02T17:05:08.162Z,23.39
2022-09-02T17:07:34.791Z,23.39
2022-09-02T17:10:01.647Z,23.40
2022-09-02T17:12:28.583Z,23.38
2022-09-02T17:14:55.302Z,23.37
2022-09-02T17:17:21.903Z,23.38
2022-09-02T17:19:48.875Z,23.37
2022-09-02T17:22:15.780Z,23.36
2022-09-02T17:24:42.969Z,23.36
2022-09-02T17:27:10.422Z,23.37
2022-09-02T17:29:52.674Z,23.37
2022-09-02T17:32:20.005Z,23.39
2022-09-02T17:34:46.880Z,23.38
2022-09-02T17:37:13.535Z,23.38
2022-09-02T17:39:40.323Z,23.38
2022-09-02T17:42:07.198Z,23.39
2022-09-02T17:44:36.097Z,23.38
2022-09-02T17:47:06.103Z,23.38
2022-09-02T17:49:33.475Z,23.38
2022-09-02T17:52:00.246Z,23.38
2022-09-02T17:54:28.095Z,23.37
2022-09-02T17:57:13.511Z,23.36
2022-09-02T17:59:40.123Z,23.38
2022-09-02T18:02:13.020Z,23.37
2022-09-02T18:04:53.064Z,23.37
2022-09-02T18:07:19.711Z,23.37
2022-09-02T18:09:46.920Z,23.37
2022-09-02T18:12:13.846Z,23.37
2022-09-02T18:14:46.037Z,23.36
2022-09-02T18:17:23.350Z,23.37
2022-09-02T18:19:57.311Z,23.37
2022-09-02T18:22:23.991Z,23.36
2022-09-02T18:24:50.604Z,23.37
2022-09-02T18:27:28.409Z,23.35
2022-09-02T18:30:03.627Z,23.37
2022-09-02T18:32:56.154Z,23.36
2022-09-02T18:35:31.177Z,23.38
2022-09-02T18:38:08.380Z,23.36
2022-09-02T18:40:35.174Z,23.37
2022-09-02T18:43:13.202Z,23.35
2022-09-02T18:45:49.269Z,23.35
2022-09-02T18:48:19.320Z,23.33
2022-09-02T18:50:52.016Z,23.35
2022-09-02T18:53:21.106Z,23.32
2022-09-02T18:55:48.729Z,23.34
2022-09-02T18:58:35.988Z,23.34
2022-09-02T19:01:06.935Z,23.35
2022-09-02T19:03:34.960Z,23.35
2022-09-02T19:06:02.052Z,23.35
2022-09-02T19:08:33.116Z,23.34
2022-09-02T19:11:02.055Z,23.33
2022-09-02T19:13:37.451Z,23.33
2022-09-02T19:16:05.065Z,23.35
2022-09-02T19:18:32.524Z,23.34
2022-09-02T19:20:59.515Z,23.35
2022-09-02T19:23:27.047Z,23.31
2022-09-02T19:25:53.840Z,23.34
2022-09-02T19:28:21.918Z,23.34
2022-09-02T19:30:49.266Z,23.33
2022-09-02T19:33:16.199Z,23.32
2022-09-02T19:35:44.781Z,23.32
2022-09-02T19:38:12.007Z,23.32
2022-09-02T19:40:40.163Z,23.31
2022-09-02T19:43:07.673Z,23.33
2022-09-02T19:45:39.265Z,23.31
2022-09-02T19:48:09.100Z,23.31
2022-09-02T19:50:42.330Z,23.33
2022-09-02T19:53:30.485Z,23.34
2022-09-02T19:55:57.930Z,23.33
2022-09-02T19:58:24.929Z,23.32
2022-09-02T20:00:54.128Z,23.32
2022-09-02T20:03:22.251Z,23.32
2022-09-02T20:05:49.863Z,23.32
2022-09-02T20:08:18.610Z,23.32
2022-09-02T20:10:55.187Z,23.31
2022-09-02T20:13:23.190Z,23.30
2022-09-02T20:15:50.898Z,23.28
2022-09-02T20:18:19.069Z,23.28
2022-09-02T20:20:47.630Z,23.26
2022-09-02T20:23:17.417Z,23.27
2022-09-02T20:25:54.553Z,23.28
2022-09-02T20:28:26.597Z,23.28
2022-09-02T20:31:16.872Z,23.27
2022-09-02T20:33:52.284Z,23.26
2022-09-02T20:36:25.324Z,23.25
2022-09-02T20:39:04.396Z,23.25
2022-09-02T20:41:41.175Z,23.26
2022-09-02T20:44:13.614Z,23.25
2022-09-02T20:46:59.491Z,23.28
2022-09-02T20:49:30.156Z,23.26
2022-09-02T20:52:07.329Z,23.24
2022-09-02T20:54:34.856Z,23.26
2022-09-02T20:57:11.803Z,23.24
2022-09-02T20:59:41.712Z,23.24
2022-09-02T21:02:10.779Z,23.25
2022-09-02T21:04:41.919Z,23.26
2022-09-02T21:07:14.964Z,23.23
2022-09-02T21:09:50.313Z,23.23
2022-09-02T21:12:33.552Z,23.22
2022-09-02T21:15:06.347Z,23.20
2022-09-02T21:17:39.364Z,23.19
2022-09-02T21:20:08.375Z,23.18
2022-09-02T21:22:41.234Z,23.20
2022-09-02T21:25:22.745Z,23.17
2022-09-02T21:27:58.909Z,23.17
2022-09-02T21:30:34.765Z,23.19
2022-09-02T21:33:05.268Z,23.20
2022-09-02T21:35:40.421Z,23.19
2022-09-02T21:38:10.560Z,23.18
2022-09-02T21:40:44.581Z,23.23
2022-09-02T21:43:26.756Z,23.21
2022-09-02T21:45:55.018Z,23.21
2022-09-02T21:48:25.464Z,23.18
2022-09-02T21:50:55.718Z,23.18
2022-09-02T21:53:31.118Z,23.19
2022-09-02T21:55:59.670Z,23.18
2022-09-02T21:58:35.892Z,23.18
2022-09-02T22:01:09.732Z,23.18
2022-09-02T22:03:45.792Z,23.17
2022-09-02T22:06:23.226Z,23.17
2022-09-02T22:08:51.286Z,23.19
2022-09-02T22:11:21.784Z,23.19
2022-09-02T22:13:48.982Z,23.22
2022-09-02T22:16:21.326Z,23.22
2022-09-02T22:18:52.656Z,23.18
2022-09-02T22:21:32.382Z,23.18
2022-09-02T22:24:03.264Z,23.19
2022-09-02T22:26:31.471Z,23.17
2022-09-02T22:29:03.981Z,23.19
2022-09-02T22:31:32.506Z,23.19
2022-09-02T22:34:02.952Z,23.19
2022-09-02T22:36:39.717Z,23.18
2022-09-02T22:39:08.782Z,23.19
2022-09-02T22:41:39.292Z,23.17
2022-09-02T22:44:15.869Z,23.16
2022-09-02T22:47:08.272Z,23.17
2022-09-02T22:50:00.841Z,23.16
2022-09-02T22:52:46.649Z,23.18
2022-09-02T22:55:15.721Z,23.16
2022-09-02T22:57:56.589Z,23.27
2022-09-02T23:00:29.732Z,23.24
2022-09-02T23:03:06.033Z,23.25
2022-09-02T23:05:43.451Z,23.25
2022-09-02T23:08:10.880Z,23.21
2022-09-02T23:10:41.195Z,23.23
2022-09-02T23:13:37.273Z,23.20
2022-09-02T23:16:14.085Z,23.19
2022-09-02T23:18:43.551Z,23.18
2022-09-02T23:21:20.779Z,23.17
2022-09-02T23:24:01.976Z,23.19
2022-09-02T23:26:41.350Z,23.19
2022-09-02T23:29:18.390Z,23.16
2022-09-02T23:32:00.616Z,23.17
2022-09-02T23:34:38.661Z,23.18
2022-09-02T23:37:05.849Z,23.18
2022-09-02T23:39:32.960Z,23.22
2022-09-02T23:42:01.254Z,23.24
2022-09-02T23:44:31.443Z,23.27
2022-09-02T23:47:04.056Z,23.22
2022-09-02T23:49:41.383Z,23.24
2022-09-02T23:52:31.112Z,23.24
2022-09-02T23:55:03.378Z,23.23
2022-09-02T23:57:50.245Z,23.23
